Woudrichem, Netherlands
Current Conditions -  °F | °C
As of 1:55 PM on Friday 24 Oct 2014 (Local Time) from EHGR Reporting Station
Broken Clouds Broken Clouds  
Wind Chill: 55°   Ceiling: 1300
Heat Index: 55°   Visibility: 6mi
Dew Point: 52°   Wind: 14mph
Humidity: 88%   Direction: 180°S
Pressure: 30.06"   Gusts: NA
Location:  51.82°N, 5°E
Report Text: EHGR 241155Z AUTO 18012KT 9999 SCT011 BKN013 BKN032 13/11 Q1018 GRN 19010KT 9999 SCT020 BKN035 TEMPO FEW010 BKN015
Loading
Personal Weather Stations






























Interactive Weather Map
Tropical Storm Tracking
New forecast layout! Learn more

10-Day Weather Forecast

Advertisements
Track Severe Weather on mobile